Time;durP1;ratioP1;P1;durP2;ratioP2;P2;SDS_P1;SDS_P2;PMS_P1;PMS_P2;Temp;Humidity;BMP_temperature;BMP_pressure;BME280_temperature;BME280_humidity;BME280_pressure;Samples;Min_cycle;Max_cycle;Signal;HPM_P1;HPM_P2
2023/03/18 00:01:06;;;;;;;8.80;5.78;;;;;;;9.77;60.76;96233.47;4998506;28;20061;-81
2023/03/18 00:03:36;;;;;;;7.90;6.03;;;;;;;9.70;60.63;96227.38;4998569;28;20082;-81
2023/03/18 00:06:08;;;;;;;6.85;5.63;;;;;;;9.64;61.02;96231.56;4998429;28;20081;-82
2023/03/18 00:08:36;;;;;;;7.53;4.97;;;;;;;9.56;61.42;96230.84;4998033;28;20099;-82
2023/03/18 00:11:05;;;;;;;5.78;4.30;;;;;;;9.54;61.83;96235.44;4998357;28;20140;-81
2023/03/18 00:13:33;;;;;;;7.10;5.15;;;;;;;9.52;61.37;96237.41;4998286;28;20077;-81
2023/03/18 00:16:01;;;;;;;8.52;4.68;;;;;;;9.49;61.24;96236.78;4998390;28;20051;-81
2023/03/18 00:18:30;;;;;;;7.75;4.28;;;;;;;9.48;61.17;96240.38;4998053;28;20041;-81
2023/03/18 00:20:59;;;;;;;5.43;3.85;;;;;;;9.52;61.83;96250.44;4998446;28;20081;-81
2023/03/18 00:23:29;;;;;;;7.82;4.70;;;;;;;9.52;61.12;96243.44;4998195;28;20031;-82
2023/03/18 00:25:59;;;;;;;6.93;4.53;;;;;;;9.47;60.89;96249.19;4998050;28;20054;-82
2023/03/18 00:28:28;;;;;;;7.32;4.28;;;;;;;9.42;60.89;96243.72;4997653;28;20066;-82
2023/03/18 00:31:01;;;;;;;6.85;3.88;;;;;;;9.38;60.86;96246.84;4998082;28;20046;-82
2023/03/18 00:33:30;;;;;;;6.70;4.30;;;;;;;9.32;60.77;96255.41;4998433;28;20038;-81
2023/03/18 00:35:58;;;;;;;7.15;3.80;;;;;;;9.28;61.12;96254.97;4998246;28;20046;-81
2023/03/18 00:38:26;;;;;;;4.72;3.72;;;;;;;9.30;62.36;96253.00;4997725;28;20038;-82
2023/03/18 00:41:00;;;;;;;7.25;3.95;;;;;;;9.30;61.47;96255.59;4997372;28;20064;-82
2023/03/18 00:43:32;;;;;;;7.40;3.95;;;;;;;9.24;61.14;96251.09;4995459;28;20051;-82
2023/03/18 00:46:00;;;;;;;5.28;4.18;;;;;;;9.19;61.33;96263.88;4997616;28;20050;-82
2023/03/18 00:48:28;;;;;;;4.30;3.55;;;;;;;9.18;61.67;96259.63;4997952;28;20058;-82
2023/03/18 00:50:56;;;;;;;4.55;3.38;;;;;;;9.15;61.24;96265.22;5001384;28;20094;-82
2023/03/18 00:53:25;;;;;;;4.10;3.42;;;;;;;9.10;60.97;96252.75;5001583;28;20078;-81
2023/03/18 00:55:52;;;;;;;5.55;3.60;;;;;;;9.05;60.92;96266.31;5001194;28;20228;-82
2023/03/18 00:58:21;;;;;;;5.78;2.97;;;;;;;9.01;60.83;96275.44;5001050;28;20061;-81
2023/03/18 01:00:49;;;;;;;5.13;3.17;;;;;;;8.99;60.66;96276.63;5001756;28;20070;-82
2023/03/18 01:03:18;;;;;;;5.10;3.17;;;;;;;8.94;60.84;96264.13;5001156;28;20035;-80
2023/03/18 01:05:46;;;;;;;7.90;3.33;;;;;;;8.92;60.84;96271.31;5001205;28;20042;-82
2023/03/18 01:08:14;;;;;;;4.50;3.17;;;;;;;8.92;60.62;96267.91;5000685;28;20066;-81
2023/03/18 01:10:41;;;;;;;4.68;3.22;;;;;;;8.93;60.48;96270.31;5001196;28;20428;-82
2023/03/18 01:13:09;;;;;;;4.22;3.05;;;;;;;8.90;60.53;96270.69;5001521;28;20035;-81
2023/03/18 01:15:39;;;;;;;3.10;2.70;;;;;;;8.92;60.50;96265.28;5001202;28;20046;-82
2023/03/18 01:18:07;;;;;;;3.25;2.60;;;;;;;8.96;61.75;96267.34;5000512;28;20119;-82
2023/03/18 01:20:36;;;;;;;4.07;2.75;;;;;;;8.95;60.52;96250.16;5001048;28;20102;-82
2023/03/18 01:23:05;;;;;;;4.80;2.65;;;;;;;8.93;60.13;96249.50;5001257;28;20057;-82
2023/03/18 01:25:32;;;;;;;3.47;2.85;;;;;;;8.89;59.96;96253.47;5001238;28;20107;-82
2023/03/18 01:28:00;;;;;;;3.58;2.75;;;;;;;8.89;60.51;96250.84;5000467;28;20078;-81
2023/03/18 01:30:28;;;;;;;5.18;2.60;;;;;;;8.90;60.88;96256.84;5000969;28;20058;-82
2023/03/18 01:32:58;;;;;;;5.82;3.25;;;;;;;8.89;60.38;96260.47;5000951;28;20058;-81
2023/03/18 01:35:27;;;;;;;4.65;2.90;;;;;;;8.86;60.53;96256.44;5000427;28;20047;-82
2023/03/18 01:37:55;;;;;;;4.20;3.30;;;;;;;8.87;60.20;96258.03;5000076;28;20081;-82
2023/03/18 01:40:23;;;;;;;4.93;2.63;;;;;;;8.92;61.52;96258.31;5000584;28;20078;-82
2023/03/18 01:42:56;;;;;;;4.40;2.42;;;;;;;8.93;60.43;96252.13;5000593;28;20085;-81
2023/03/18 01:45:27;;;;;;;6.00;2.88;;;;;;;8.95;61.42;96260.56;5000161;28;20114;-82
2023/03/18 01:47:56;;;;;;;5.57;2.97;;;;;;;8.97;60.22;96258.56;5000235;28;20047;-81
2023/03/18 01:50:30;;;;;;;4.25;2.67;;;;;;;8.96;60.31;96264.75;5000284;28;20027;-81
2023/03/18 01:53:03;;;;;;;4.03;2.90;;;;;;;9.00;60.16;96260.00;5000585;28;20039;-82
2023/03/18 01:55:32;;;;;;;3.42;2.10;;;;;;;9.00;61.29;96263.41;5000108;28;20043;-82
2023/03/18 01:58:03;;;;;;;2.83;2.33;;;;;;;9.05;63.81;96260.25;4999899;28;20047;-82
2023/03/18 02:00:31;;;;;;;4.70;2.47;;;;;;;9.04;62.31;96259.47;4999474;28;20074;-81
2023/03/18 02:02:59;;;;;;;3.85;2.70;;;;;;;9.07;63.52;96264.31;5011301;23;20074;-78
2023/03/18 02:05:28;;;;;;;3.85;2.67;;;;;;;9.12;61.30;96262.94;4994701;28;20054;-78
2023/03/18 02:07:56;;;;;;;5.22;2.85;;;;;;;9.13;62.17;96267.19;4994574;28;20179;-78
2023/03/18 02:10:26;;;;;;;4.47;2.50;;;;;;;9.09;61.38;96264.13;4995262;28;20134;-78
2023/03/18 02:12:59;;;;;;;3.97;2.75;;;;;;;9.05;61.54;96270.66;4995121;28;20054;-78
2023/03/18 02:15:28;;;;;;;4.25;2.75;;;;;;;9.02;60.71;96264.03;4995036;28;20054;-79
2023/03/18 02:18:01;;;;;;;4.90;3.10;;;;;;;9.00;63.64;96279.03;4994113;28;20512;-78
2023/03/18 02:20:44;;;;;;;4.05;2.45;;;;;;;9.01;60.89;96272.03;4994970;28;20046;-78
2023/03/18 02:23:29;;;;;;;3.20;2.30;;;;;;;8.97;60.10;96279.38;4994865;28;20121;-77
2023/03/18 02:26:03;;;;;;;3.00;2.00;;;;;;;8.91;60.06;96268.91;4994612;28;20057;-78
2023/03/18 02:28:33;;;;;;;3.17;2.17;;;;;;;8.87;61.12;96271.03;4994205;28;20137;-78
2023/03/18 02:31:05;;;;;;;5.93;2.55;;;;;;;8.85;60.59;96270.41;4994610;28;20046;-79
2023/03/18 02:33:37;;;;;;;2.58;2.10;;;;;;;8.87;62.77;96269.25;4994765;28;20084;-78
2023/03/18 02:36:09;;;;;;;3.87;2.40;;;;;;;8.92;62.27;96273.94;4994629;28;20096;-78
2023/03/18 02:38:41;;;;;;;4.70;2.88;;;;;;;8.95;63.20;96276.16;4993844;28;20280;-78
2023/03/18 02:41:14;;;;;;;5.07;2.35;;;;;;;8.99;61.30;96274.81;4994673;28;20100;-78
2023/03/18 02:43:45;;;;;;;3.55;2.78;;;;;;;8.95;60.52;96270.16;4994608;28;20576;-78
2023/03/18 02:46:21;;;;;;;5.47;2.30;;;;;;;8.92;60.82;96265.28;4994324;28;20060;-78
2023/03/18 02:48:49;;;;;;;5.05;2.42;;;;;;;8.92;61.75;96281.72;4994071;28;20412;-78
2023/03/18 02:51:18;;;;;;;3.60;2.47;;;;;;;8.94;61.90;96261.53;4994151;28;20046;-78
2023/03/18 02:53:45;;;;;;;3.00;2.00;;;;;;;8.91;60.45;96269.69;4994333;28;20058;-79
2023/03/18 02:56:13;;;;;;;5.88;2.10;;;;;;;8.87;60.23;96263.22;4994266;28;20334;-78
2023/03/18 02:58:42;;;;;;;5.50;1.95;;;;;;;8.87;60.10;96263.22;4993532;28;20054;-78
2023/03/18 03:01:11;;;;;;;4.35;2.10;;;;;;;8.89;62.27;96271.66;4994094;28;20129;-78
2023/03/18 03:03:39;;;;;;;6.60;2.80;;;;;;;8.88;60.79;96277.88;4994160;28;20050;-78
2023/03/18 03:06:08;;;;;;;3.10;2.40;;;;;;;8.88;60.65;96275.28;4993856;28;20504;-78
2023/03/18 03:08:36;;;;;;;5.13;2.63;;;;;;;8.88;60.38;96285.69;4993585;28;20050;-78
2023/03/18 03:11:04;;;;;;;6.55;2.58;;;;;;;8.84;60.13;96280.00;4994356;28;20490;-78
2023/03/18 03:13:31;;;;;;;3.88;2.15;;;;;;;8.82;61.59;96286.38;4994041;28;20092;-78
2023/03/18 03:16:00;;;;;;;2.30;1.67;;;;;;;8.81;61.02;96285.59;4993839;28;20089;-78
2023/03/18 03:18:29;;;;;;;3.63;1.85;;;;;;;8.81;62.02;96290.78;4993270;28;20100;-79
2023/03/18 03:20:56;;;;;;;2.72;2.22;;;;;;;8.83;60.36;96287.97;4994023;28;20130;-79
2023/03/18 03:23:24;;;;;;;4.07;2.13;;;;;;;8.84;62.08;96292.22;4993821;28;20064;-78
2023/03/18 03:25:52;;;;;;;3.08;1.92;;;;;;;8.89;63.17;96302.88;4993622;28;20054;-78
2023/03/18 03:28:20;;;;;;;4.85;2.38;;;;;;;8.91;62.89;96306.13;4992788;28;20052;-78
2023/03/18 03:30:48;;;;;;;6.35;3.33;;;;;;;8.93;61.80;96309.34;4993649;28;20078;-78
2023/03/18 03:33:17;;;;;;;5.47;2.72;;;;;;;8.92;60.59;96299.94;4993619;28;20054;-78
2023/03/18 03:35:44;;;;;;;5.40;2.65;;;;;;;8.89;60.35;96302.88;4993361;28;20046;-78
2023/03/18 03:38:12;;;;;;;6.20;2.33;;;;;;;8.89;60.15;96296.88;4992783;28;20053;-78
2023/03/18 03:40:40;;;;;;;3.55;2.47;;;;;;;8.91;61.51;96311.31;4993453;28;20477;-78
2023/03/18 03:43:07;;;;;;;3.70;2.35;;;;;;;8.95;61.92;96302.16;4993492;28;20046;-78
2023/03/18 03:45:35;;;;;;;3.03;2.10;;;;;;;8.93;61.72;96304.16;4993606;28;20076;-78
2023/03/18 03:48:03;;;;;;;4.22;2.25;;;;;;;8.92;60.67;96305.16;4992796;28;20066;-78
2023/03/18 03:50:32;;;;;;;4.55;1.90;;;;;;;8.91;60.01;96306.13;4993635;28;20065;-78
2023/03/18 03:53:01;;;;;;;2.90;1.83;;;;;;;8.85;59.84;96307.66;4993055;28;20145;-78
2023/03/18 03:55:28;;;;;;;3.67;2.35;;;;;;;8.79;59.55;96304.91;4993435;28;20493;-78
2023/03/18 03:57:56;;;;;;;7.30;2.72;;;;;;;8.76;60.08;96308.69;4992630;28;20056;-78
2023/03/18 04:00:24;;;;;;;3.53;2.40;;;;;;;8.78;60.86;96313.72;4993361;28;20158;-78
2023/03/18 04:02:53;;;;;;;4.05;2.03;;;;;;;8.76;60.84;96319.09;4993171;28;20042;-78
2023/03/18 04:05:24;;;;;;;3.25;2.47;;;;;;;8.78;61.77;96311.94;4993014;28;20087;-78
2023/03/18 04:07:54;;;;;;;6.28;2.63;;;;;;;8.81;61.28;96321.16;4992414;28;20043;-78
2023/03/18 04:10:22;;;;;;;5.82;2.20;;;;;;;8.80;62.40;96316.97;4993255;28;20078;-78
2023/03/18 04:12:50;;;;;;;4.95;2.47;;;;;;;8.83;62.94;96322.63;4992957;28;20085;-78
2023/03/18 04:15:20;;;;;;;7.85;2.03;;;;;;;8.86;62.68;96324.84;4993075;28;20150;-78
2023/03/18 04:17:48;;;;;;;3.88;2.38;;;;;;;8.90;62.75;96325.31;4992385;28;20062;-78
2023/03/18 04:20:17;;;;;;;6.85;2.72;;;;;;;8.81;60.89;96321.16;4992797;28;20053;-78
2023/03/18 04:22:45;;;;;;;4.05;2.20;;;;;;;8.72;60.68;96335.22;4992698;28;20561;-78
2023/03/18 04:25:14;;;;;;;7.82;3.25;;;;;;;8.68;61.41;96326.16;4993062;28;20050;-78
2023/03/18 04:27:42;;;;;;;8.23;2.65;;;;;;;8.64;60.51;96329.13;4993193;28;20076;-78
2023/03/18 04:30:12;;;;;;;9.57;2.80;;;;;;;8.58;60.38;96329.81;4993604;28;20078;-78
2023/03/18 04:32:39;;;;;;;4.10;2.60;;;;;;;8.55;62.80;96330.19;4994368;28;20050;-78
2023/03/18 04:35:09;;;;;;;9.05;4.35;;;;;;;8.54;61.08;96330.34;4993418;28;20109;-78
2023/03/18 04:37:37;;;;;;;10.55;5.15;;;;;;;8.49;61.27;96330.06;4993101;28;20061;-78
2023/03/18 04:40:06;;;;;;;10.13;5.72;;;;;;;8.50;60.93;96329.88;4997390;28;20061;-78
2023/03/18 04:42:35;;;;;;;10.85;5.90;;;;;;;8.54;62.42;96331.16;4995909;28;20047;-78
2023/03/18 04:45:04;;;;;;;9.38;4.10;;;;;;;8.59;62.17;96339.25;4992884;28;20142;-78
2023/03/18 04:47:33;;;;;;;5.78;2.72;;;;;;;8.60;61.51;96335.66;4992438;28;20114;-78
2023/03/18 04:50:01;;;;;;;7.07;3.58;;;;;;;8.55;61.04;96331.94;4992131;28;20076;-78
2023/03/18 04:52:28;;;;;;;13.90;4.60;;;;;;;8.50;61.45;96335.09;4992774;28;20501;-78
2023/03/18 04:54:56;;;;;;;9.73;4.68;;;;;;;8.52;61.63;96342.72;4992640;28;20420;-77
2023/03/18 04:57:24;;;;;;;11.68;4.25;;;;;;;8.53;61.59;96344.34;4992550;28;20125;-78
2023/03/18 04:59:53;;;;;;;7.13;4.10;;;;;;;8.51;62.44;96344.50;4992019;28;20062;-78
2023/03/18 05:02:20;;;;;;;7.43;2.97;;;;;;;8.45;61.33;96340.00;4992633;28;20061;-79
2023/03/18 05:04:48;;;;;;;5.93;2.85;;;;;;;8.38;61.73;96337.28;4992582;28;20054;-78
2023/03/18 05:07:16;;;;;;;6.93;3.67;;;;;;;8.36;63.59;96341.81;4992477;28;20492;-78
2023/03/18 05:09:44;;;;;;;6.57;3.28;;;;;;;8.43;63.22;96344.56;4991735;28;20082;-78
2023/03/18 05:12:14;;;;;;;10.70;3.92;;;;;;;8.48;63.44;96347.44;4992417;28;20141;-78
2023/03/18 05:14:42;;;;;;;22.60;9.57;;;;;;;8.45;63.04;96338.22;4992762;28;20463;-78
2023/03/18 05:17:14;;;;;;;39.45;17.00;;;;;;;8.40;62.24;96340.53;4992639;28;20141;-78
2023/03/18 05:19:43;;;;;;;22.52;11.05;;;;;;;8.39;63.09;96338.06;4991926;28;20287;-78
2023/03/18 05:22:12;;;;;;;30.95;15.32;;;;;;;8.35;62.41;96336.78;4992406;28;20057;-78
2023/03/18 05:24:40;;;;;;;28.52;11.70;;;;;;;8.32;62.05;96337.16;4992278;28;20082;-77
2023/03/18 05:27:08;;;;;;;23.08;12.30;;;;;;;8.22;61.57;96338.19;4992136;28;20109;-78
2023/03/18 05:29:36;;;;;;;18.92;7.90;;;;;;;8.17;61.93;96340.50;4991728;28;20103;-77
2023/03/18 05:32:05;;;;;;;17.65;7.13;;;;;;;8.16;62.47;96344.09;4991872;28;20085;-78
2023/03/18 05:34:36;;;;;;;9.82;6.13;;;;;;;8.21;64.02;96346.97;4992332;28;20050;-77
2023/03/18 05:37:04;;;;;;;15.57;7.45;;;;;;;8.20;62.31;96347.16;4995418;28;20457;-78
2023/03/18 05:39:33;;;;;;;12.80;5.70;;;;;;;8.12;61.61;96342.81;4995076;28;20050;-78
2023/03/18 05:42:01;;;;;;;10.90;4.13;;;;;;;8.05;61.45;96347.09;4995986;28;20137;-78
2023/03/18 05:44:28;;;;;;;10.27;4.00;;;;;;;8.00;61.49;96344.16;4995575;28;20133;-78
2023/03/18 05:46:56;;;;;;;6.28;2.97;;;;;;;7.97;61.72;96345.31;4995523;28;20057;-78
2023/03/18 05:49:24;;;;;;;4.57;2.60;;;;;;;7.98;61.80;96349.56;4995030;28;20053;-78
2023/03/18 05:51:53;;;;;;;11.05;2.85;;;;;;;7.98;61.39;96351.31;4995181;28;20057;-78
2023/03/18 05:54:22;;;;;;;5.65;2.53;;;;;;;7.98;62.63;96341.78;4995449;28;20050;-78
2023/03/18 05:56:51;;;;;;;6.15;3.20;;;;;;;7.99;61.52;96342.56;4995512;28;20129;-78
2023/03/18 05:59:19;;;;;;;8.65;3.47;;;;;;;7.94;61.42;96344.88;4994999;28;20061;-78
2023/03/18 06:01:48;;;;;;;11.75;3.72;;;;;;;7.88;62.16;96341.16;4995595;28;20050;-78
2023/03/18 06:04:17;;;;;;;8.20;3.80;;;;;;;7.90;61.49;96343.59;4995229;28;20136;-78
2023/03/18 06:06:45;;;;;;;8.88;4.03;;;;;;;7.95;62.25;96346.47;4995334;28;20055;-78
2023/03/18 06:09:15;;;;;;;10.90;4.25;;;;;;;7.99;61.50;96345.16;4994624;28;20456;-78
2023/03/18 06:11:43;;;;;;;6.47;2.30;;;;;;;7.98;61.44;96356.53;4995250;28;20141;-78
2023/03/18 06:14:11;;;;;;;6.22;2.85;;;;;;;8.02;63.35;96356.03;4995050;28;20417;-78
2023/03/18 06:16:40;;;;;;;6.35;2.70;;;;;;;8.13;63.38;96354.00;4994936;28;20096;-78
2023/03/18 06:19:09;;;;;;;8.38;3.08;;;;;;;8.21;61.91;96356.56;4994082;28;20058;-78
2023/03/18 06:21:37;;;;;;;7.32;3.05;;;;;;;8.23;61.03;96355.41;4995251;28;20054;-78
2023/03/18 06:24:05;;;;;;;6.57;2.88;;;;;;;8.24;60.75;96356.19;4995034;28;20493;-78
2023/03/18 06:26:34;;;;;;;6.90;2.55;;;;;;;8.23;60.45;96354.59;4995279;28;20109;-78
2023/03/18 06:29:02;;;;;;;8.38;2.63;;;;;;;8.24;60.32;96357.03;4994118;28;20105;-78
2023/03/18 06:31:31;;;;;;;5.25;2.55;;;;;;;8.25;60.80;96358.63;4994968;28;20137;-78
2023/03/18 06:33:58;;;;;;;6.57;2.30;;;;;;;8.29;60.31;96359.09;4994604;28;20050;-77
2023/03/18 06:36:28;;;;;;;6.50;2.15;;;;;;;8.31;60.65;96364.09;4995050;28;20110;-78
2023/03/18 06:38:55;;;;;;;4.47;2.22;;;;;;;8.35;60.21;96362.78;4994105;28;20054;-78
2023/03/18 06:41:23;;;;;;;7.10;2.33;;;;;;;8.38;59.79;96354.66;4995019;28;20077;-78
2023/03/18 06:43:52;;;;;;;7.30;2.45;;;;;;;8.40;60.02;96350.94;4994694;28;20053;-78
2023/03/18 06:46:20;;;;;;;6.25;2.53;;;;;;;8.47;60.04;96356.25;4993893;28;20062;-78
2023/03/18 06:48:47;;;;;;;9.77;4.03;;;;;;;8.53;59.84;96365.94;4994168;28;20464;-78
2023/03/18 06:51:15;;;;;;;11.40;3.72;;;;;;;8.58;60.30;96361.03;4994556;28;20108;-78
2023/03/18 06:53:43;;;;;;;10.90;4.63;;;;;;;8.65;60.71;96367.13;4994292;28;20057;-78
2023/03/18 06:56:12;;;;;;;9.55;3.65;;;;;;;8.77;60.45;96364.13;4994291;28;20057;-78
2023/03/18 06:58:39;;;;;;;10.20;4.03;;;;;;;8.84;59.78;96368.44;4993476;28;20058;-78
2023/03/18 07:01:11;;;;;;;17.25;5.95;;;;;;;8.89;59.41;96362.72;4994043;28;20053;-78
2023/03/18 07:03:38;;;;;;;15.18;3.90;;;;;;;8.92;59.14;96370.19;4994446;28;20050;-78
2023/03/18 07:06:08;;;;;;;9.38;3.47;;;;;;;8.97;59.66;96375.66;4994147;28;20051;-79
2023/03/18 07:08:36;;;;;;;13.82;3.42;;;;;;;9.05;59.12;96380.78;4993341;28;20082;-77
2023/03/18 07:11:03;;;;;;;10.40;2.90;;;;;;;9.14;58.89;96385.88;4994166;28;20497;-78
2023/03/18 07:13:31;;;;;;;8.25;2.67;;;;;;;9.18;58.56;96379.34;4994480;28;20061;-78
2023/03/18 07:15:59;;;;;;;6.75;2.63;;;;;;;9.25;58.45;96380.25;4994540;28;20136;-78
2023/03/18 07:18:28;;;;;;;9.65;3.00;;;;;;;9.31;58.12;96379.53;4993314;28;20061;-78
2023/03/18 07:20:56;;;;;;;9.68;3.25;;;;;;;9.37;57.92;96381.41;4993762;28;20145;-78
2023/03/18 07:23:23;;;;;;;7.53;2.95;;;;;;;9.44;57.88;96382.31;4993773;28;20046;-78
2023/03/18 07:25:51;;;;;;;11.00;2.83;;;;;;;9.54;57.70;96383.84;4995556;28;20137;-78
2023/03/18 07:28:19;;;;;;;9.13;2.88;;;;;;;9.68;57.79;96390.84;4996000;28;20107;-79
2023/03/18 07:30:46;;;;;;;6.63;2.30;;;;;;;9.80;57.37;96386.00;4994214;28;20054;-78
2023/03/18 07:33:14;;;;;;;4.97;2.45;;;;;;;9.95;58.40;96388.56;4993541;28;20054;-78
2023/03/18 07:35:43;;;;;;;9.57;2.72;;;;;;;10.14;57.25;96389.78;4993668;28;20092;-78
2023/03/18 07:38:11;;;;;;;9.95;3.22;;;;;;;10.37;56.49;96389.66;4992762;28;20152;-78
2023/03/18 07:40:39;;;;;;;10.13;2.72;;;;;;;10.67;56.29;96379.88;4993395;28;20504;-78
2023/03/18 07:43:08;;;;;;;4.85;2.88;;;;;;;11.00;55.33;96389.78;4993406;28;20477;-78
2023/03/18 07:45:36;;;;;;;8.13;3.10;;;;;;;11.35;54.33;96393.28;4993179;28;20543;-78
2023/03/18 07:48:04;;;;;;;7.43;2.92;;;;;;;11.75;53.76;96393.47;4992846;28;20500;-79
2023/03/18 07:50:32;;;;;;;4.28;2.83;;;;;;;12.26;52.48;96397.53;4994671;28;20054;-78
2023/03/18 07:53:02;;;;;;;7.40;2.40;;;;;;;13.17;52.50;96402.25;4994055;28;20089;-79
2023/03/18 07:55:30;;;;;;;5.95;2.88;;;;;;;14.56;49.58;96394.97;4994003;28;20077;-79
2023/03/18 07:57:58;;;;;;;7.63;2.95;;;;;;;16.04;43.90;96391.59;4992843;28;20058;-79
2023/03/18 08:00:26;;;;;;;7.00;2.78;;;;;;;17.55;41.92;96408.25;4993154;28;20516;-78
2023/03/18 08:02:54;;;;;;;6.68;3.00;;;;;;;18.73;38.31;96406.88;4993156;28;20150;-79
2023/03/18 08:26:11;;;;;;;11.25;3.90;;;;;;;25.42;27.08;96408.47;4993607;28;20058;-78
2023/03/18 08:28:40;;;;;;;4.35;2.50;;;;;;;25.80;25.96;96408.63;4993293;28;20050;-78
2023/03/18 08:31:08;;;;;;;5.47;2.17;;;;;;;26.36;25.99;96411.75;4992851;28;20060;-78
2023/03/18 08:33:36;;;;;;;2.95;2.20;;;;;;;27.04;23.61;96413.19;4991356;28;20485;-78
2023/03/18 09:30:56;;;;;;;1.92;0.63;;;;;;;27.17;21.79;96379.53;5604245;22;20072;-81
2023/03/18 09:33:48;;;;;;;1.70;0.70;;;;;;;27.00;20.16;96380.84;5126439;23;20057;-80
2023/03/18 10:35:24;;;;;;;2.63;0.80;;;;;;;27.83;19.51;96346.16;5878424;23;20045;-80
2023/03/18 10:38:01;;;;;;;2.95;0.70;;;;;;;27.84;19.51;96345.09;5053780;28;20045;-81
2023/03/18 10:40:38;;;;;;;0.85;0.60;;;;;;;27.81;18.88;96350.25;5054593;28;20052;-81
2023/03/18 10:43:15;;;;;;;1.67;0.68;;;;;;;27.94;18.98;96346.78;5054945;28;20057;-80
2023/03/18 10:45:44;;;;;;;1.88;1.00;;;;;;;28.16;19.27;96340.69;5044103;28;20529;-80
2023/03/18 10:48:19;;;;;;;2.25;1.00;;;;;;;28.13;19.45;96341.31;5087261;23;20506;-83
2023/03/18 10:50:53;;;;;;;2.22;0.80;;;;;;;28.11;19.62;96343.50;5054210;28;20197;-82
2023/03/18 10:53:27;;;;;;;1.52;0.60;;;;;;;28.34;19.23;96336.31;5054409;28;20391;-82
2023/03/18 10:56:03;;;;;;;0.95;0.75;;;;;;;28.70;18.69;96330.91;5054163;28;20045;-82
2023/03/18 10:58:32;;;;;;;1.08;0.75;;;;;;;28.78;19.09;96325.94;5039702;28;20049;-82
2023/03/18 11:01:01;;;;;;;2.20;1.10;;;;;;;28.68;18.64;96330.44;5034461;28;20110;-82
2023/03/18 11:03:34;;;;;;;1.42;0.80;;;;;;;28.71;18.76;96318.28;5034292;28;20115;-82
2023/03/18 11:06:07;;;;;;;3.92;1.27;;;;;;;28.92;18.71;96318.59;5034310;28;20052;-82
2023/03/18 11:08:38;;;;;;;1.75;0.95;;;;;;;29.13;18.83;96316.22;5034299;28;20053;-82
2023/03/18 11:11:25;;;;;;;2.13;0.97;;;;;;;29.27;18.25;96311.53;5039977;28;20049;-82
2023/03/18 11:13:56;;;;;;;2.38;0.95;;;;;;;29.24;18.65;96308.69;5035639;28;20290;-82
2023/03/18 11:16:30;;;;;;;2.00;0.80;;;;;;;29.46;18.89;96316.69;5034038;28;20567;-82
2023/03/18 11:18:59;;;;;;;2.95;0.68;;;;;;;29.58;18.58;96311.53;5033949;28;20499;-83
2023/03/18 11:21:30;;;;;;;1.83;0.80;;;;;;;29.70;19.42;96304.78;5033946;28;20565;-82
2023/03/18 11:24:19;;;;;;;1.48;1.05;;;;;;;29.98;18.52;96311.47;5033990;28;20049;-83
2023/03/18 11:26:55;;;;;;;1.60;0.80;;;;;;;30.11;18.21;96314.31;5033932;28;20554;-82
2023/03/18 11:29:27;;;;;;;1.80;0.98;;;;;;;30.23;18.31;96303.75;5033707;28;20136;-82
2023/03/18 11:31:58;;;;;;;1.35;0.70;;;;;;;30.36;18.14;96305.53;5034265;28;20474;-82
2023/03/18 11:34:30;;;;;;;2.38;0.70;;;;;;;30.44;17.77;96300.44;5033754;28;20052;-83
2023/03/18 11:37:03;;;;;;;6.07;1.05;;;;;;;30.46;17.70;96293.66;5033700;28;20057;-82
2023/03/18 11:39:36;;;;;;;2.35;0.90;;;;;;;30.36;18.13;96297.44;5033906;28;20049;-82
2023/03/18 11:42:18;;;;;;;3.42;0.80;;;;;;;30.14;18.13;96297.56;5033730;28;20076;-82
2023/03/18 11:44:50;;;;;;;;;;;;;;;30.31;18.45;96289.53;5033835;28;20050;-82
2023/03/18 11:47:27;;;;;;;2.47;0.65;;;;;;;30.27;18.18;96285.09;5033618;28;20003;-82
2023/03/18 11:49:59;;;;;;;1.33;0.70;;;;;;;30.31;18.18;96281.47;5033267;28;20053;-83
2023/03/18 11:52:45;;;;;;;1.58;0.65;;;;;;;30.32;17.89;96285.72;5032862;28;20057;-82
2023/03/18 11:55:27;;;;;;;1.27;0.98;;;;;;;30.44;17.66;96281.59;5033979;28;20046;-82
2023/03/18 11:58:34;;;;;;;2.58;0.98;;;;;;;30.51;18.06;96277.34;5032930;28;20053;-82
2023/03/18 12:01:16;;;;;;;1.83;0.80;;;;;;;30.72;16.92;96282.06;4994128;28;20400;-81
2023/03/18 12:04:11;;;;;;;4.57;1.10;;;;;;;30.88;17.14;96264.31;5033444;28;20049;-82
2023/03/18 12:06:56;;;;;;;1.27;0.80;;;;;;;31.11;16.94;96262.19;5034746;28;20422;-82
2023/03/18 12:09:55;;;;;;;3.28;0.80;;;;;;;31.07;17.87;96268.53;5043606;28;20049;-82
2023/03/18 12:13:04;;;;;;;1.85;0.75;;;;;;;30.85;16.69;96256.84;5034471;28;20488;-82
2023/03/18 12:15:47;;;;;;;1.77;0.77;;;;;;;30.41;16.81;96256.13;5016924;28;20404;-82
2023/03/18 12:18:35;;;;;;;1.50;0.80;;;;;;;30.29;17.65;96261.38;5016229;28;20061;-82
2023/03/18 12:21:19;;;;;;;2.03;0.90;;;;;;;30.18;17.65;96264.34;5034729;28;20049;-81
2023/03/18 12:24:00;;;;;;;1.77;0.52;;;;;;;30.15;17.51;96262.31;5036868;28;20083;-81
2023/03/18 12:26:40;;;;;;;1.35;0.70;;;;;;;30.12;17.66;96262.91;5034075;28;20049;-82
2023/03/18 12:29:32;;;;;;;2.35;0.85;;;;;;;29.84;17.51;96257.03;5033072;28;20092;-82
2023/03/18 12:32:16;;;;;;;1.75;0.60;;;;;;;29.35;17.31;96245.53;5033214;28;20041;-82
2023/03/18 12:34:56;;;;;;;1.33;0.80;;;;;;;28.94;17.55;96239.31;5036790;28;20068;-81
2023/03/18 12:37:33;;;;;;;2.55;0.93;;;;;;;28.49;18.13;96235.91;5049323;28;20084;-82
2023/03/18 12:40:25;;;;;;;0.85;0.57;;;;;;;28.11;19.12;96238.91;5038248;28;20464;-82
2023/03/18 12:43:29;;;;;;;1.40;0.75;;;;;;;27.77;18.79;96232.16;5035051;28;20045;-81
2023/03/18 12:46:01;;;;;;;3.88;0.80;;;;;;;27.46;19.41;96232.78;5040659;28;20053;-81
2023/03/18 12:48:33;;;;;;;1.15;0.80;;;;;;;27.11;19.53;96232.38;5038144;28;20068;-81
2023/03/18 12:51:15;;;;;;;2.50;0.80;;;;;;;26.83;19.34;96220.03;5037062;28;20049;-81
2023/03/18 12:53:46;;;;;;;1.58;0.60;;;;;;;26.54;20.09;96218.34;5036764;28;20053;-81
2023/03/18 12:56:20;;;;;;;3.95;0.70;;;;;;;26.28;19.64;96210.78;5036478;28;20057;-81
2023/03/18 12:58:52;;;;;;;2.08;0.73;;;;;;;26.04;20.82;96208.22;5036201;28;20073;-81
2023/03/18 13:01:23;;;;;;;;;;;;;;;25.92;20.81;96207.06;5037025;28;20045;-81
2023/03/18 13:03:55;;;;;;;4.57;0.93;;;;;;;25.87;20.88;96205.22;5036578;28;19991;-81
2023/03/18 13:06:29;;;;;;;2.38;0.73;;;;;;;25.80;20.45;96210.94;5043933;28;20053;-81
2023/03/18 13:09:06;;;;;;;2.35;0.73;;;;;;;25.60;22.01;96206.63;5036968;28;20136;-81
2023/03/18 13:11:54;;;;;;;4.55;1.05;;;;;;;25.36;21.35;96211.22;5036427;28;20049;-81
2023/03/18 13:14:31;;;;;;;4.55;0.90;;;;;;;25.14;21.35;96217.84;5036682;28;20538;-81
2023/03/18 13:17:01;;;;;;;3.10;0.70;;;;;;;24.90;22.04;96211.72;5035844;28;20084;-81
2023/03/18 13:19:30;;;;;;;2.83;0.70;;;;;;;24.71;22.83;96206.28;5035698;28;20140;-81
2023/03/18 13:22:12;;;;;;;1.63;0.82;;;;;;;24.62;22.58;96208.78;5036023;28;20467;-80
2023/03/18 13:25:04;;;;;;;1.83;0.60;;;;;;;24.47;22.27;96207.03;5036486;28;20049;-81
2023/03/18 13:27:38;;;;;;;;;;;;;;;24.26;22.78;96204.53;5036425;28;20111;-81
2023/03/18 13:30:18;;;;;;;2.60;0.80;;;;;;;24.00;22.71;96197.78;5036308;28;19921;-81
2023/03/18 13:33:06;;;;;;;1.75;1.00;;;;;;;23.74;22.94;96200.59;5038079;28;20481;-81
2023/03/18 13:35:52;;;;;;;2.78;0.80;;;;;;;23.46;23.27;96196.75;5009023;28;20080;-82
2023/03/18 13:38:34;;;;;;;1.65;0.70;;;;;;;23.28;23.40;96198.16;5058123;28;20060;-81
2023/03/18 13:41:21;;;;;;;1.58;0.63;;;;;;;23.12;23.51;96193.97;5058052;28;20058;-83
2023/03/18 13:43:50;;;;;;;1.08;0.60;;;;;;;22.96;24.19;96190.56;5050167;28;20061;-81
2023/03/18 13:46:23;;;;;;;3.42;1.15;;;;;;;22.82;24.63;96187.63;5041058;28;20049;-81
2023/03/18 13:48:55;;;;;;;2.97;0.90;;;;;;;22.74;24.79;96190.84;5035345;28;20061;-81
2023/03/18 13:51:48;;;;;;;1.42;0.98;;;;;;;22.63;24.44;96190.88;5036683;28;20073;-81
2023/03/18 13:54:17;;;;;;;3.72;0.75;;;;;;;22.58;24.48;96180.25;5035966;28;20518;-82
2023/03/18 13:56:48;;;;;;;3.35;1.00;;;;;;;22.54;24.45;96184.53;5034138;28;20140;-81
2023/03/18 13:59:45;;;;;;;1.88;0.95;;;;;;;22.42;24.37;96181.34;5035138;28;20049;-81
2023/03/18 14:02:44;;;;;;;1.88;0.73;;;;;;;22.34;25.45;96171.25;5037376;28;20057;-81
2023/03/18 14:05:39;;;;;;;2.08;0.88;;;;;;;22.23;25.26;96178.41;5028411;28;20060;-81
2023/03/18 14:08:35;;;;;;;1.95;0.70;;;;;;;22.12;26.22;96180.25;5034483;28;20049;-81
2023/03/18 14:11:49;;;;;;;2.75;1.02;;;;;;;21.99;25.85;96181.56;5034971;28;20140;-81
2023/03/18 14:14:38;;;;;;;2.35;1.02;;;;;;;21.86;25.95;96175.97;5035501;28;20057;-81
2023/03/18 14:17:16;;;;;;;1.58;0.75;;;;;;;21.77;26.40;96173.84;5034585;28;20045;-81